sensor_id;sensor_type;location;lat;lon;timestamp;temperature;humidity
74484;SHT31;62942;52.462;10.846;2023-02-01T00:00:08;4.5;82
74484;SHT31;62942;52.462;10.846;2023-02-01T00:01:17;4.5;82
74484;SHT31;62942;52.462;10.846;2023-02-01T00:02:27;4.5;81.9
74484;SHT31;62942;52.462;10.846;2023-02-01T00:03:27;4.5;82
74484;SHT31;62942;52.462;10.846;2023-02-01T00:04:27;4.5;82
74484;SHT31;62942;52.462;10.846;2023-02-01T00:05:27;4.5;82
74484;SHT31;62942;52.462;10.846;2023-02-01T00:06:37;4.5;82.1
74484;SHT31;62942;52.462;10.846;2023-02-01T00:07:37;4.5;82.1
74484;SHT31;62942;52.462;10.846;2023-02-01T00:08:47;4.5;82.2
74484;SHT31;62942;52.462;10.846;2023-02-01T00:09:47;4.5;82
74484;SHT31;62942;52.462;10.846;2023-02-01T00:10:57;4.5;82.1
74484;SHT31;62942;52.462;10.846;2023-02-01T00:11:57;4.6;82
74484;SHT31;62942;52.462;10.846;2023-02-01T00:13:07;4.6;82
74484;SHT31;62942;52.462;10.846;2023-02-01T00:14:07;4.6;82
74484;SHT31;62942;52.462;10.846;2023-02-01T00:15:07;4.6;82
74484;SHT31;62942;52.462;10.846;2023-02-01T00:16:18;4.6;82.1
74484;SHT31;62942;52.462;10.846;2023-02-01T00:17:17;4.6;82
74484;SHT31;62942;52.462;10.846;2023-02-01T00:18:17;4.6;82
74484;SHT31;62942;52.462;10.846;2023-02-01T00:19:27;4.6;82
74484;SHT31;62942;52.462;10.846;2023-02-01T00:20:36;4.6;81.9
74484;SHT31;62942;52.462;10.846;2023-02-01T00:21:37;4.6;81.8
74484;SHT31;62942;52.462;10.846;2023-02-01T00:22:37;4.6;81.9
74484;SHT31;62942;52.462;10.846;2023-02-01T00:23:37;4.6;81.8
74484;SHT31;62942;52.462;10.846;2023-02-01T00:24:47;4.7;81.6
74484;SHT31;62942;52.462;10.846;2023-02-01T00:25:47;4.7;81.6
74484;SHT31;62942;52.462;10.846;2023-02-01T00:26:57;4.7;81.5
74484;SHT31;62942;52.462;10.846;2023-02-01T00:27:57;4.7;81.6
74484;SHT31;62942;52.462;10.846;2023-02-01T00:29:09;4.7;81.6
74484;SHT31;62942;52.462;10.846;2023-02-01T00:30:07;4.7;81.6
74484;SHT31;62942;52.462;10.846;2023-02-01T00:31:17;4.7;81.5
74484;SHT31;62942;52.462;10.846;2023-02-01T00:32:26;4.7;81.6
74484;SHT31;62942;52.462;10.846;2023-02-01T00:33:27;4.7;81.6
74484;SHT31;62942;52.462;10.846;2023-02-01T00:34:27;4.8;81.5
74484;SHT31;62942;52.462;10.846;2023-02-01T00:35:27;4.8;81.4
74484;SHT31;62942;52.462;10.846;2023-02-01T00:36:36;4.8;81.3
74484;SHT31;62942;52.462;10.846;2023-02-01T00:37:37;4.8;81.3
74484;SHT31;62942;52.462;10.846;2023-02-01T00:38:37;4.9;81.1
74484;SHT31;62942;52.462;10.846;2023-02-01T00:39:37;4.9;81.2
74484;SHT31;62942;52.462;10.846;2023-02-01T00:40:46;4.9;81
74484;SHT31;62942;52.462;10.846;2023-02-01T00:41:47;4.9;81
74484;SHT31;62942;52.462;10.846;2023-02-01T00:42:57;4.9;80.9
74484;SHT31;62942;52.462;10.846;2023-02-01T00:44:07;4.9;80.9
74484;SHT31;62942;52.462;10.846;2023-02-01T00:45:17;4.9;81
74484;SHT31;62942;52.462;10.846;2023-02-01T00:46:17;4.9;81
74484;SHT31;62942;52.462;10.846;2023-02-01T00:47:26;4.8;81
74484;SHT31;62942;52.462;10.846;2023-02-01T00:48:27;4.8;80.9
74484;SHT31;62942;52.462;10.846;2023-02-01T00:49:26;4.8;81
74484;SHT31;62942;52.462;10.846;2023-02-01T00:50:26;4.8;81
74484;SHT31;62942;52.462;10.846;2023-02-01T00:51:36;4.8;80.8
74484;SHT31;62942;52.462;10.846;2023-02-01T00:52:46;4.8;80.9
74484;SHT31;62942;52.462;10.846;2023-02-01T00:53:56;4.9;81
74484;SHT31;62942;52.462;10.846;2023-02-01T00:55:07;4.8;81
74484;SHT31;62942;52.462;10.846;2023-02-01T00:56:07;4.8;81
74484;SHT31;62942;52.462;10.846;2023-02-01T00:57:17;4.8;81
74484;SHT31;62942;52.462;10.846;2023-02-01T00:58:17;4.9;81
74484;SHT31;62942;52.462;10.846;2023-02-01T00:59:26;4.8;81
74484;SHT31;62942;52.462;10.846;2023-02-01T01:00:26;4.8;81.1
74484;SHT31;62942;52.462;10.846;2023-02-01T01:01:27;4.8;81.1
74484;SHT31;62942;52.462;10.846;2023-02-01T01:02:37;4.8;80.9
74484;SHT31;62942;52.462;10.846;2023-02-01T01:03:47;4.9;81
74484;SHT31;62942;52.462;10.846;2023-02-01T01:04:47;4.8;81
74484;SHT31;62942;52.462;10.846;2023-02-01T01:05:57;4.9;81
74484;SHT31;62942;52.462;10.846;2023-02-01T01:06:56;4.9;80.9
74484;SHT31;62942;52.462;10.846;2023-02-01T01:08:06;4.9;80.8
74484;SHT31;62942;52.462;10.846;2023-02-01T01:09:16;4.9;81
74484;SHT31;62942;52.462;10.846;2023-02-01T01:10:16;4.9;80.8
74484;SHT31;62942;52.462;10.846;2023-02-01T01:11:18;4.9;80.9
74484;SHT31;62942;52.462;10.846;2023-02-01T01:12:26;4.9;80.9
74484;SHT31;62942;52.462;10.846;2023-02-01T01:13:36;4.9;80.9
74484;SHT31;62942;52.462;10.846;2023-02-01T01:14:46;4.9;80.9
74484;SHT31;62942;52.462;10.846;2023-02-01T01:15:59;4.9;80.9
74484;SHT31;62942;52.462;10.846;2023-02-01T01:16:56;4.9;81
74484;SHT31;62942;52.462;10.846;2023-02-01T01:18:07;4.9;81.1
74484;SHT31;62942;52.462;10.846;2023-02-01T01:19:06;4.9;81.1
74484;SHT31;62942;52.462;10.846;2023-02-01T01:20:17;4.9;80.8
74484;SHT31;62942;52.462;10.846;2023-02-01T01:21:27;4.9;80.8
74484;SHT31;62942;52.462;10.846;2023-02-01T01:22:26;5;80.7
74484;SHT31;62942;52.462;10.846;2023-02-01T01:23:36;5;80.6
74484;SHT31;62942;52.462;10.846;2023-02-01T01:24:46;5;80.5
74484;SHT31;62942;52.462;10.846;2023-02-01T01:25:46;5;80.4
74484;SHT31;62942;52.462;10.846;2023-02-01T01:26:56;5;80.4
74484;SHT31;62942;52.462;10.846;2023-02-01T01:28:07;5;80.5
74484;SHT31;62942;52.462;10.846;2023-02-01T01:29:08;5;80.4
74484;SHT31;62942;52.462;10.846;2023-02-01T01:30:17;5;80.5
74484;SHT31;62942;52.462;10.846;2023-02-01T01:31:26;5;80.4
74484;SHT31;62942;52.462;10.846;2023-02-01T01:32:26;5;80.3
74484;SHT31;62942;52.462;10.846;2023-02-01T01:33:37;5;80.6
74484;SHT31;62942;52.462;10.846;2023-02-01T01:34:46;5;80.5
74484;SHT31;62942;52.462;10.846;2023-02-01T01:35:46;5;80.5
74484;SHT31;62942;52.462;10.846;2023-02-01T01:36:56;5;80.5
74484;SHT31;62942;52.462;10.846;2023-02-01T01:38:06;5.1;80.3
74484;SHT31;62942;52.462;10.846;2023-02-01T01:39:06;5.1;80.4
74484;SHT31;62942;52.462;10.846;2023-02-01T01:40:17;5.1;80.3
74484;SHT31;62942;52.462;10.846;2023-02-01T01:41:28;5.1;80.5
74484;SHT31;62942;52.462;10.846;2023-02-01T01:42:26;5.1;80.3
74484;SHT31;62942;52.462;10.846;2023-02-01T01:43:44;5.1;80.5
74484;SHT31;62942;52.462;10.846;2023-02-01T01:45:16;5.1;80.4
74484;SHT31;62942;52.462;10.846;2023-02-01T01:45:46;5.1;80.4
74484;SHT31;62942;52.462;10.846;2023-02-01T01:46:56;5.1;80.3
74484;SHT31;62942;52.462;10.846;2023-02-01T01:48:07;5.1;80.1
74484;SHT31;62942;52.462;10.846;2023-02-01T01:49:07;5.1;80.2
74484;SHT31;62942;52.462;10.846;2023-02-01T01:50:17;5.1;80.2
74484;SHT31;62942;52.462;10.846;2023-02-01T01:51:27;5.1;80.1
74484;SHT31;62942;52.462;10.846;2023-02-01T01:52:26;5.1;80.2
74484;SHT31;62942;52.462;10.846;2023-02-01T01:53:37;5.1;80.2
74484;SHT31;62942;52.462;10.846;2023-02-01T01:54:47;5.1;80.1
74484;SHT31;62942;52.462;10.846;2023-02-01T01:55:46;5.1;80.2
74484;SHT31;62942;52.462;10.846;2023-02-01T01:56:57;5.1;80.2
74484;SHT31;62942;52.462;10.846;2023-02-01T01:57:57;5.1;80.2
74484;SHT31;62942;52.462;10.846;2023-02-01T01:59:06;5.1;80.3
74484;SHT31;62942;52.462;10.846;2023-02-01T02:00:17;5.1;80.4
74484;SHT31;62942;52.462;10.846;2023-02-01T02:01:16;5.1;80.4
74484;SHT31;62942;52.462;10.846;2023-02-01T02:02:26;5.1;80.2
74484;SHT31;62942;52.462;10.846;2023-02-01T02:03:27;5.1;80.3
74484;SHT31;62942;52.462;10.846;2023-02-01T02:04:36;5.1;80.2
74484;SHT31;62942;52.462;10.846;2023-02-01T02:05:46;5.1;80.1
74484;SHT31;62942;52.462;10.846;2023-02-01T02:06:47;5.1;80.2
74484;SHT31;62942;52.462;10.846;2023-02-01T02:07:48;5.1;80.2
74484;SHT31;62942;52.462;10.846;2023-02-01T02:08:56;5.1;80.2
74484;SHT31;62942;52.462;10.846;2023-02-01T02:09:56;5.1;80.2
74484;SHT31;62942;52.462;10.846;2023-02-01T02:11:06;5.1;80
74484;SHT31;62942;52.462;10.846;2023-02-01T02:12:06;5.1;80
74484;SHT31;62942;52.462;10.846;2023-02-01T02:13:06;5.1;80
74484;SHT31;62942;52.462;10.846;2023-02-01T02:14:17;5.1;80
74484;SHT31;62942;52.462;10.846;2023-02-01T02:15:26;5.1;80
74484;SHT31;62942;52.462;10.846;2023-02-01T02:16:31;5.1;79.9
74484;SHT31;62942;52.462;10.846;2023-02-01T02:17:38;5.1;80
74484;SHT31;62942;52.462;10.846;2023-02-01T02:18:53;5.1;80
74484;SHT31;62942;52.462;10.846;2023-02-01T02:19:56;5.1;79.9
74484;SHT31;62942;52.462;10.846;2023-02-01T02:20:52;5.1;80.1
74484;SHT31;62942;52.462;10.846;2023-02-01T02:22:03;5.2;80
74484;SHT31;62942;52.462;10.846;2023-02-01T02:24:09;5.1;80.2
74484;SHT31;62942;52.462;10.846;2023-02-01T02:25:19;5.1;80.2
74484;SHT31;62942;52.462;10.846;2023-02-01T02:26:24;5.1;80.2
74484;SHT31;62942;52.462;10.846;2023-02-01T02:27:17;5.1;80.2
74484;SHT31;62942;52.462;10.846;2023-02-01T02:28:35;5.1;80.3
74484;SHT31;62942;52.462;10.846;2023-02-01T02:29:41;5.1;80.4
74484;SHT31;62942;52.462;10.846;2023-02-01T02:30:52;5.1;80.5
74484;SHT31;62942;52.462;10.846;2023-02-01T02:31:51;5;80.5
74484;SHT31;62942;52.462;10.846;2023-02-01T02:33:15;5.1;80.5
74484;SHT31;62942;52.462;10.846;2023-02-01T02:33:58;5;80.5
74484;SHT31;62942;52.462;10.846;2023-02-01T02:35:07;5.1;80.5
74484;SHT31;62942;52.462;10.846;2023-02-01T02:36:07;5.1;80.5
74484;SHT31;62942;52.462;10.846;2023-02-01T02:37:19;5;80.6
74484;SHT31;62942;52.462;10.846;2023-02-01T02:38:18;5;80.4
74484;SHT31;62942;52.462;10.846;2023-02-01T02:39:18;5.1;80.4
74484;SHT31;62942;52.462;10.846;2023-02-01T02:40:27;5;80.3
74484;SHT31;62942;52.462;10.846;2023-02-01T02:41:27;5.1;80.5
74484;SHT31;62942;52.462;10.846;2023-02-01T02:42:37;5;80.5
74484;SHT31;62942;52.462;10.846;2023-02-01T02:43:48;5;80.6
74484;SHT31;62942;52.462;10.846;2023-02-01T02:44:57;5;80.7
74484;SHT31;62942;52.462;10.846;2023-02-01T02:46:08;5;80.7
74484;SHT31;62942;52.462;10.846;2023-02-01T02:47:19;5;80.9
74484;SHT31;62942;52.462;10.846;2023-02-01T02:48:27;5;80.9
74484;SHT31;62942;52.462;10.846;2023-02-01T02:49:38;5;80.7
74484;SHT31;62942;52.462;10.846;2023-02-01T02:50:47;5;80.8
74484;SHT31;62942;52.462;10.846;2023-02-01T02:51:58;5;80.8
74484;SHT31;62942;52.462;10.846;2023-02-01T02:53:07;5;80.7
74484;SHT31;62942;52.462;10.846;2023-02-01T02:54:17;5;80.8
74484;SHT31;62942;52.462;10.846;2023-02-01T02:55:26;5;80.7
74484;SHT31;62942;52.462;10.846;2023-02-01T02:56:37;5;80.6
74484;SHT31;62942;52.462;10.846;2023-02-01T02:57:46;5;80.7
74484;SHT31;62942;52.462;10.846;2023-02-01T02:58:46;5;80.6
74484;SHT31;62942;52.462;10.846;2023-02-01T02:59:57;5;80.8
74484;SHT31;62942;52.462;10.846;2023-02-01T03:01:06;5.1;80.7
74484;SHT31;62942;52.462;10.846;2023-02-01T03:02:06;5;80.7
74484;SHT31;62942;52.462;10.846;2023-02-01T03:03:16;5;80.8
74484;SHT31;62942;52.462;10.846;2023-02-01T03:04:16;5;80.9
74484;SHT31;62942;52.462;10.846;2023-02-01T03:05:31;5;80.9
74484;SHT31;62942;52.462;10.846;2023-02-01T03:06:37;5;80.8
74484;SHT31;62942;52.462;10.846;2023-02-01T03:08:10;5;80.8
74484;SHT31;62942;52.462;10.846;2023-02-01T03:08:46;5;80.8
74484;SHT31;62942;52.462;10.846;2023-02-01T03:09:46;5;81
74484;SHT31;62942;52.462;10.846;2023-02-01T03:10:57;5;80.9
74484;SHT31;62942;52.462;10.846;2023-02-01T03:11:58;5;80.7
74484;SHT31;62942;52.462;10.846;2023-02-01T03:13:07;5;80.9
74484;SHT31;62942;52.462;10.846;2023-02-01T03:14:16;5;80.9
74484;SHT31;62942;52.462;10.846;2023-02-01T03:15:28;5;80.9
74484;SHT31;62942;52.462;10.846;2023-02-01T03:16:38;5;80.7
74484;SHT31;62942;52.462;10.846;2023-02-01T03:17:38;5;80.7
74484;SHT31;62942;52.462;10.846;2023-02-01T03:18:48;5;80.6
74484;SHT31;62942;52.462;10.846;2023-02-01T03:19:46;5;80.4
74484;SHT31;62942;52.462;10.846;2023-02-01T03:20:56;5.1;80.3
74484;SHT31;62942;52.462;10.846;2023-02-01T03:21:57;5.1;80.3
74484;SHT31;62942;52.462;10.846;2023-02-01T03:23:06;5.1;80.3
74484;SHT31;62942;52.462;10.846;2023-02-01T03:24:07;5.1;80.4
74484;SHT31;62942;52.462;10.846;2023-02-01T03:25:07;5.1;80.4
74484;SHT31;62942;52.462;10.846;2023-02-01T03:26:17;5.1;80.4
74484;SHT31;62942;52.462;10.846;2023-02-01T03:27:17;5;80.5
74484;SHT31;62942;52.462;10.846;2023-02-01T03:28:27;5;80.5
74484;SHT31;62942;52.462;10.846;2023-02-01T03:29:27;5;80.7
74484;SHT31;62942;52.462;10.846;2023-02-01T03:30:37;5;80.6
74484;SHT31;62942;52.462;10.846;2023-02-01T03:31:36;5;80.5
74484;SHT31;62942;52.462;10.846;2023-02-01T03:32:36;5;80.5
74484;SHT31;62942;52.462;10.846;2023-02-01T03:33:46;5;80.6
74484;SHT31;62942;52.462;10.846;2023-02-01T03:34:46;5;80.5
74484;SHT31;62942;52.462;10.846;2023-02-01T03:35:58;5;80.7
74484;SHT31;62942;52.462;10.846;2023-02-01T03:36:57;5;80.5
74484;SHT31;62942;52.462;10.846;2023-02-01T03:38:08;5;80.7
74484;SHT31;62942;52.462;10.846;2023-02-01T03:39:07;5;80.7
74484;SHT31;62942;52.462;10.846;2023-02-01T03:40:16;5;80.5
74484;SHT31;62942;52.462;10.846;2023-02-01T03:41:17;5;80.4
74484;SHT31;62942;52.462;10.846;2023-02-01T03:42:27;5;80.5
74484;SHT31;62942;52.462;10.846;2023-02-01T03:43:27;5.1;80.3
74484;SHT31;62942;52.462;10.846;2023-02-01T03:44:27;5.1;80.3
74484;SHT31;62942;52.462;10.846;2023-02-01T03:45:37;5.1;80.3
74484;SHT31;62942;52.462;10.846;2023-02-01T03:46:37;5.1;80.1
74484;SHT31;62942;52.462;10.846;2023-02-01T03:47:47;5.1;80.1
74484;SHT31;62942;52.462;10.846;2023-02-01T03:48:46;5.1;80.2
74484;SHT31;62942;52.462;10.846;2023-02-01T03:49:47;5.1;80.3
74484;SHT31;62942;52.462;10.846;2023-02-01T03:50:58;5.1;80.3
74484;SHT31;62942;52.462;10.846;2023-02-01T03:51:57;5.1;80.4
74484;SHT31;62942;52.462;10.846;2023-02-01T03:53:07;5.1;80.5
74484;SHT31;62942;52.462;10.846;2023-02-01T03:54:07;5.1;80.3
74484;SHT31;62942;52.462;10.846;2023-02-01T03:55:17;5.1;80.4
74484;SHT31;62942;52.462;10.846;2023-02-01T03:56:26;5.1;80.3
74484;SHT31;62942;52.462;10.846;2023-02-01T03:57:37;5.1;80.4
74484;SHT31;62942;52.462;10.846;2023-02-01T03:58:36;5.1;80.3
74484;SHT31;62942;52.462;10.846;2023-02-01T03:59:38;5.1;80.4
74484;SHT31;62942;52.462;10.846;2023-02-01T04:00:36;5.1;80.5
74484;SHT31;62942;52.462;10.846;2023-02-01T04:01:46;5.1;80.4
74484;SHT31;62942;52.462;10.846;2023-02-01T04:02:56;5.1;80.5
74484;SHT31;62942;52.462;10.846;2023-02-01T04:04:06;5.1;80.4
74484;SHT31;62942;52.462;10.846;2023-02-01T04:05:06;5.1;80.5
74484;SHT31;62942;52.462;10.846;2023-02-01T04:06:06;5.1;80.4
74484;SHT31;62942;52.462;10.846;2023-02-01T04:07:06;5.1;80.5
74484;SHT31;62942;52.462;10.846;2023-02-01T04:08:16;5.1;80.5
74484;SHT31;62942;52.462;10.846;2023-02-01T04:09:16;5.1;80.5
74484;SHT31;62942;52.462;10.846;2023-02-01T04:10:26;5.1;80.6
74484;SHT31;62942;52.462;10.846;2023-02-01T04:11:36;5.1;80.5
74484;SHT31;62942;52.462;10.846;2023-02-01T04:12:46;5.1;80.6
74484;SHT31;62942;52.462;10.846;2023-02-01T04:13:46;5.1;80.6
74484;SHT31;62942;52.462;10.846;2023-02-01T04:14:56;5.1;80.8
74484;SHT31;62942;52.462;10.846;2023-02-01T04:15:56;5.1;80.6
74484;SHT31;62942;52.462;10.846;2023-02-01T04:17:06;5.1;80.6
74484;SHT31;62942;52.462;10.846;2023-02-01T04:18:16;5.1;80.8
74484;SHT31;62942;52.462;10.846;2023-02-01T04:19:26;5.1;80.8
74484;SHT31;62942;52.462;10.846;2023-02-01T04:20:26;5;80.9
74484;SHT31;62942;52.462;10.846;2023-02-01T04:21:36;5;81.2
74484;SHT31;62942;52.462;10.846;2023-02-01T04:22:46;5;81.1
74484;SHT31;62942;52.462;10.846;2023-02-01T04:23:46;5;81.3
74484;SHT31;62942;52.462;10.846;2023-02-01T04:24:56;5;81.5
74484;SHT31;62942;52.462;10.846;2023-02-01T04:25:58;5;81.5
74484;SHT31;62942;52.462;10.846;2023-02-01T04:27:06;5;81.5
74484;SHT31;62942;52.462;10.846;2023-02-01T04:28:06;5;81.6
74484;SHT31;62942;52.462;10.846;2023-02-01T04:29:16;5;81.6
74484;SHT31;62942;52.462;10.846;2023-02-01T04:30:16;4.9;81.7
74484;SHT31;62942;52.462;10.846;2023-02-01T04:31:26;4.9;81.8
74484;SHT31;62942;52.462;10.846;2023-02-01T04:32:26;4.9;81.7
74484;SHT31;62942;52.462;10.846;2023-02-01T04:33:26;4.9;81.8
74484;SHT31;62942;52.462;10.846;2023-02-01T04:34:26;4.9;81.7
74484;SHT31;62942;52.462;10.846;2023-02-01T04:35:36;4.9;81.8
74484;SHT31;62942;52.462;10.846;2023-02-01T04:36:36;4.9;81.7
74484;SHT31;62942;52.462;10.846;2023-02-01T04:37:36;5;81.6
74484;SHT31;62942;52.462;10.846;2023-02-01T04:38:46;4.9;81.7
74484;SHT31;62942;52.462;10.846;2023-02-01T04:39:46;4.9;81.8
74484;SHT31;62942;52.462;10.846;2023-02-01T04:40:47;4.9;81.7
74484;SHT31;62942;52.462;10.846;2023-02-01T04:41:46;4.9;81.7
74484;SHT31;62942;52.462;10.846;2023-02-01T04:42:56;4.9;81.8
74484;SHT31;62942;52.462;10.846;2023-02-01T04:43:56;4.9;81.9
74484;SHT31;62942;52.462;10.846;2023-02-01T04:45:06;4.9;81.8
74484;SHT31;62942;52.462;10.846;2023-02-01T04:46:06;4.9;81.9
74484;SHT31;62942;52.462;10.846;2023-02-01T04:47:06;4.9;81.8
74484;SHT31;62942;52.462;10.846;2023-02-01T04:48:08;4.9;81.9
74484;SHT31;62942;52.462;10.846;2023-02-01T04:49:16;4.9;81.9
74484;SHT31;62942;52.462;10.846;2023-02-01T04:50:16;4.9;81.9
74484;SHT31;62942;52.462;10.846;2023-02-01T04:51:26;4.9;81.8
74484;SHT31;62942;52.462;10.846;2023-02-01T04:52:26;5;81.9
74484;SHT31;62942;52.462;10.846;2023-02-01T04:53:26;4.9;81.9
74484;SHT31;62942;52.462;10.846;2023-02-01T04:54:36;5;82
74484;SHT31;62942;52.462;10.846;2023-02-01T04:55:36;4.9;81.9
74484;SHT31;62942;52.462;10.846;2023-02-01T04:56:46;4.9;81.9
74484;SHT31;62942;52.462;10.846;2023-02-01T04:57:46;5;81.9
74484;SHT31;62942;52.462;10.846;2023-02-01T04:58:46;5;81.9
74484;SHT31;62942;52.462;10.846;2023-02-01T04:59:56;5;81.9
74484;SHT31;62942;52.462;10.846;2023-02-01T05:00:56;5;81.9
74484;SHT31;62942;52.462;10.846;2023-02-01T05:02:06;5;81.9
74484;SHT31;62942;52.462;10.846;2023-02-01T05:03:06;5;81.8
74484;SHT31;62942;52.462;10.846;2023-02-01T05:04:06;5;81.9
74484;SHT31;62942;52.462;10.846;2023-02-01T05:05:06;5;81.8
74484;SHT31;62942;52.462;10.846;2023-02-01T05:06:16;5;81.9
74484;SHT31;62942;52.462;10.846;2023-02-01T05:07:26;5;81.8
74484;SHT31;62942;52.462;10.846;2023-02-01T05:08:26;5;81.8
74484;SHT31;62942;52.462;10.846;2023-02-01T05:09:26;5;81.7
74484;SHT31;62942;52.462;10.846;2023-02-01T05:10:36;5;81.6
74484;SHT31;62942;52.462;10.846;2023-02-01T05:11:36;5.1;81.7
74484;SHT31;62942;52.462;10.846;2023-02-01T05:12:36;5;81.8
74484;SHT31;62942;52.462;10.846;2023-02-01T05:13:46;5;81.8
74484;SHT31;62942;52.462;10.846;2023-02-01T05:14:56;5.1;81.6
74484;SHT31;62942;52.462;10.846;2023-02-01T05:15:56;5.1;81.9
74484;SHT31;62942;52.462;10.846;2023-02-01T05:16:56;5.1;81.7
74484;SHT31;62942;52.462;10.846;2023-02-01T05:18:06;5.1;81.9
74484;SHT31;62942;52.462;10.846;2023-02-01T05:19:16;5.1;82.1
74484;SHT31;62942;52.462;10.846;2023-02-01T05:20:26;5.1;82.1
74484;SHT31;62942;52.462;10.846;2023-02-01T05:21:26;5.1;82
74484;SHT31;62942;52.462;10.846;2023-02-01T05:22:26;5.1;82
74484;SHT31;62942;52.462;10.846;2023-02-01T05:23:26;5.1;81.9
74484;SHT31;62942;52.462;10.846;2023-02-01T05:24:36;5.1;81.9
74484;SHT31;62942;52.462;10.846;2023-02-01T05:25:36;5.1;82
74484;SHT31;62942;52.462;10.846;2023-02-01T05:26:36;5.1;81.8
74484;SHT31;62942;52.462;10.846;2023-02-01T05:27:46;5.1;82
74484;SHT31;62942;52.462;10.846;2023-02-01T05:28:46;5.1;81.9
74484;SHT31;62942;52.462;10.846;2023-02-01T05:29:46;5.1;82
74484;SHT31;62942;52.462;10.846;2023-02-01T05:30:46;5.1;82.1
74484;SHT31;62942;52.462;10.846;2023-02-01T05:31:56;5.1;82.3
74484;SHT31;62942;52.462;10.846;2023-02-01T05:32:56;5.1;82.2
74484;SHT31;62942;52.462;10.846;2023-02-01T05:34:06;5.1;82.4
74484;SHT31;62942;52.462;10.846;2023-02-01T05:35:06;5.1;82.6
74484;SHT31;62942;52.462;10.846;2023-02-01T05:36:16;5;82.9
74484;SHT31;62942;52.462;10.846;2023-02-01T05:37:16;5;83
74484;SHT31;62942;52.462;10.846;2023-02-01T05:38:16;5;83.1
74484;SHT31;62942;52.462;10.846;2023-02-01T05:39:16;5;83.2
74484;SHT31;62942;52.462;10.846;2023-02-01T05:40:16;5;83.5
74484;SHT31;62942;52.462;10.846;2023-02-01T05:41:16;5;84
74484;SHT31;62942;52.462;10.846;2023-02-01T05:42:26;4.9;84.5
74484;SHT31;62942;52.462;10.846;2023-02-01T05:43:26;4.8;84.6
74484;SHT31;62942;52.462;10.846;2023-02-01T05:44:26;4.8;85
74484;SHT31;62942;52.462;10.846;2023-02-01T05:45:36;4.7;85.4
74484;SHT31;62942;52.462;10.846;2023-02-01T05:46:36;4.7;85.7
74484;SHT31;62942;52.462;10.846;2023-02-01T05:47:36;4.6;85.6
74484;SHT31;62942;52.462;10.846;2023-02-01T05:48:36;4.6;86.4
74484;SHT31;62942;52.462;10.846;2023-02-01T05:49:46;4.5;86.7
74484;SHT31;62942;52.462;10.846;2023-02-01T05:50:46;4.5;87
74484;SHT31;62942;52.462;10.846;2023-02-01T05:51:56;4.5;86.9
74484;SHT31;62942;52.462;10.846;2023-02-01T05:53:06;4.4;87.6
74484;SHT31;62942;52.462;10.846;2023-02-01T05:54:16;4.4;87.8
74484;SHT31;62942;52.462;10.846;2023-02-01T05:55:16;4.4;87.8
74484;SHT31;62942;52.462;10.846;2023-02-01T05:56:16;4.3;88.3
74484;SHT31;62942;52.462;10.846;2023-02-01T05:57:26;4.3;88.5
74484;SHT31;62942;52.462;10.846;2023-02-01T05:58:26;4.3;88.3
74484;SHT31;62942;52.462;10.846;2023-02-01T05:59:36;4.3;88.7
74484;SHT31;62942;52.462;10.846;2023-02-01T06:00:46;4.3;88.8
74484;SHT31;62942;52.462;10.846;2023-02-01T06:01:56;4.3;88.9
74484;SHT31;62942;52.462;10.846;2023-02-01T06:02:56;4.2;89.1
74484;SHT31;62942;52.462;10.846;2023-02-01T06:03:56;4.2;88.9
74484;SHT31;62942;52.462;10.846;2023-02-01T06:04:56;4.2;89.2
74484;SHT31;62942;52.462;10.846;2023-02-01T06:06:06;4.2;89.2
74484;SHT31;62942;52.462;10.846;2023-02-01T06:07:06;4.2;89.2
74484;SHT31;62942;52.462;10.846;2023-02-01T06:08:16;4.2;89.4
74484;SHT31;62942;52.462;10.846;2023-02-01T06:09:16;4.2;89.3
74484;SHT31;62942;52.462;10.846;2023-02-01T06:10:26;4.2;89.5
74484;SHT31;62942;52.462;10.846;2023-02-01T06:11:36;4.2;89.5
74484;SHT31;62942;52.462;10.846;2023-02-01T06:12:36;4.2;89.5
74484;SHT31;62942;52.462;10.846;2023-02-01T06:13:46;4.2;89.5
74484;SHT31;62942;52.462;10.846;2023-02-01T06:14:46;4.2;89.5
74484;SHT31;62942;52.462;10.846;2023-02-01T06:15:46;4.2;89.5
74484;SHT31;62942;52.462;10.846;2023-02-01T06:16:56;4.2;89.5
74484;SHT31;62942;52.462;10.846;2023-02-01T06:17:56;4.2;89.2
74484;SHT31;62942;52.462;10.846;2023-02-01T06:18:56;4.2;89.3
74484;SHT31;62942;52.462;10.846;2023-02-01T06:20:06;4.1;89.4
74484;SHT31;62942;52.462;10.846;2023-02-01T06:21:06;4.1;89.4
74484;SHT31;62942;52.462;10.846;2023-02-01T06:22:06;4.1;89.6
74484;SHT31;62942;52.462;10.846;2023-02-01T06:23:06;4.1;89.7
74484;SHT31;62942;52.462;10.846;2023-02-01T06:24:16;4.1;89.6
74484;SHT31;62942;52.462;10.846;2023-02-01T06:25:26;4.1;89.7
74484;SHT31;62942;52.462;10.846;2023-02-01T06:26:36;4.1;89.5
74484;SHT31;62942;52.462;10.846;2023-02-01T06:27:46;4.1;89.7
74484;SHT31;62942;52.462;10.846;2023-02-01T06:28:56;4.1;89.8
74484;SHT31;62942;52.462;10.846;2023-02-01T06:30:07;4.1;89.7
74484;SHT31;62942;52.462;10.846;2023-02-01T06:31:06;4.1;89.8
74484;SHT31;62942;52.462;10.846;2023-02-01T06:32:06;4.1;89.9
74484;SHT31;62942;52.462;10.846;2023-02-01T06:33:06;4.1;89.9
74484;SHT31;62942;52.462;10.846;2023-02-01T06:34:16;4.1;90
74484;SHT31;62942;52.462;10.846;2023-02-01T06:35:16;4.1;89.9
74484;SHT31;62942;52.462;10.846;2023-02-01T06:36:26;4.1;89.8
74484;SHT31;62942;52.462;10.846;2023-02-01T06:37:26;4.1;89.8
74484;SHT31;62942;52.462;10.846;2023-02-01T06:38:36;4.2;89.9
74484;SHT31;62942;52.462;10.846;2023-02-01T06:39:36;4.1;89.9
74484;SHT31;62942;52.462;10.846;2023-02-01T06:40:36;4.2;90
74484;SHT31;62942;52.462;10.846;2023-02-01T06:41:46;4.2;90
74484;SHT31;62942;52.462;10.846;2023-02-01T06:42:47;4.2;90
74484;SHT31;62942;52.462;10.846;2023-02-01T06:43:56;4.2;90.1
74484;SHT31;62942;52.462;10.846;2023-02-01T06:45:06;4.2;90.2
74484;SHT31;62942;52.462;10.846;2023-02-01T06:46:06;4.2;90.2
74484;SHT31;62942;52.462;10.846;2023-02-01T06:47:16;4.2;90.2
74484;SHT31;62942;52.462;10.846;2023-02-01T06:48:26;4.2;90.3
74484;SHT31;62942;52.462;10.846;2023-02-01T06:49:26;4.2;90.1
74484;SHT31;62942;52.462;10.846;2023-02-01T06:50:36;4.2;90.5
74484;SHT31;62942;52.462;10.846;2023-02-01T06:51:46;4.2;90.3
74484;SHT31;62942;52.462;10.846;2023-02-01T06:52:56;4.1;90.8
74484;SHT31;62942;52.462;10.846;2023-02-01T06:54:06;4.1;90.9
74484;SHT31;62942;52.462;10.846;2023-02-01T06:55:06;4.1;91.1
74484;SHT31;62942;52.462;10.846;2023-02-01T06:56:06;4.1;90.9
74484;SHT31;62942;52.462;10.846;2023-02-01T06:57:16;4.1;91.1
74484;SHT31;62942;52.462;10.846;2023-02-01T06:58:27;4.1;91
74484;SHT31;62942;52.462;10.846;2023-02-01T06:59:36;4.1;91.2
74484;SHT31;62942;52.462;10.846;2023-02-01T07:00:46;4.1;91
74484;SHT31;62942;52.462;10.846;2023-02-01T07:01:46;4.1;91
74484;SHT31;62942;52.462;10.846;2023-02-01T07:02:57;4.1;90.9
74484;SHT31;62942;52.462;10.846;2023-02-01T07:04:06;4.1;90.9
74484;SHT31;62942;52.462;10.846;2023-02-01T07:05:06;4.1;90.9
74484;SHT31;62942;52.462;10.846;2023-02-01T07:06:16;4.1;90.8
74484;SHT31;62942;52.462;10.846;2023-02-01T07:07:26;4.2;90.8
74484;SHT31;62942;52.462;10.846;2023-02-01T07:08:36;4.1;90.9
74484;SHT31;62942;52.462;10.846;2023-02-01T07:09:36;4.2;90.8
74484;SHT31;62942;52.462;10.846;2023-02-01T07:10:46;4.2;90.9
74484;SHT31;62942;52.462;10.846;2023-02-01T07:11:56;4.1;90.9